CheckWX is a tool to help pilots better visualize weather data.  It is not intended as a substitute for an official pre-flight weather briefing.

15:38:32 UTC

KLEE METAR
Leesburg International Airport
Leesburg, Florida, USA
Current

46 mins ago

KLEE 241453Z 16005KT 10SM CLR 29/24 A3007 RMK AO2 SLP180 T02940244 50009
Observed
Jun-24 @ 14:53 UTC
Wind
  • 160° at 5 KTS
Visibility
10 SM
Flight Rules
VFR
Cloud Levels
  • Clear skies
Temperature
29°C / 84°F
Dewpoint
24°C / 75°F
Heat Index
33°C / 92°F
Humidity
74%
Altimeter
30.07" Hg
Pressure
1018.32 hPa
Previous

2 hours ago

KLEE 241353Z VRB04KT 10SM FEW018 29/24 A3007 RMK AO2 SLP180 T02890239
Observed
Jun-24 @ 13:53 UTC
Wind
  • Variable at 4 KTS
Visibility
10 SM
Flight Rules
VFR
Cloud Levels
  • Few at 1,800' AGL
Temperature
29°C / 84°F
Dewpoint
24°C / 75°F
Heat Index
33°C / 92°F
Humidity
74%
Altimeter
30.07" Hg
Pressure
1018.32 hPa
Previous

3 hours ago

KLEE 241253Z 29003KT 10SM CLR 27/24 A3005 RMK AO2 SLP175 T02720244
Observed
Jun-24 @ 12:53 UTC
Wind
  • 290° at 3 KTS
Visibility
10 SM
Flight Rules
VFR
Cloud Levels
  • Clear skies
Temperature
27°C / 81°F
Dewpoint
24°C / 75°F
Heat Index
31°C / 87°F
Humidity
84%
Altimeter
30.05" Hg
Pressure
1017.62 hPa